Terminal Aerodrome Forecast
Issued by NWS

Current Version | Previous Version | Text Only | Print | Product List | Glossary On
Versions: 1 2 3 4 5 6 7 8 9 10 11 12 13 14 15 16 17 18 19 20 21 22 23 24 25 26 27 28
000
FTUS44 KEWX 210700 AAA
TAFSSF
TAF AMD
KSSF 210713Z 2107/2206 15010KT P6SM BKN015
     FM211000 13005KT 4SM BR OVC008
     FM211100 14006KT 4SM BR OVC003
     FM211400 14008KT P6SM OVC007
     FM211600 15007KT P6SM OVC015
     FM211800 15010KT P6SM SCT030 BKN080=

USA.gov is the U.S. government's official web portal to all federal, state and local government web resources and services.